createdAt,value
2023-01-30T00:02:20.597Z,0.67
2023-01-30T00:04:48.878Z,0.70
2023-01-30T00:07:17.384Z,0.64
2023-01-30T00:09:47.637Z,0.62
2023-01-30T00:12:15.856Z,0.69
2023-01-30T00:14:44.102Z,0.60
2023-01-30T00:17:13.571Z,0.66
2023-01-30T00:19:41.725Z,0.66
2023-01-30T00:22:09.876Z,0.54
2023-01-30T00:24:38.139Z,0.59
2023-01-30T00:27:06.633Z,0.76
2023-01-30T00:29:34.888Z,0.68
2023-01-30T00:32:03.621Z,0.66
2023-01-30T00:34:34.009Z,0.53
2023-01-30T00:37:08.474Z,0.67
2023-01-30T00:39:36.866Z,0.68
2023-01-30T00:42:22.666Z,0.66
2023-01-30T00:45:08.468Z,0.65
2023-01-30T00:47:37.159Z,0.57
2023-01-30T00:50:07.532Z,0.67
2023-01-30T00:52:42.019Z,0.59
2023-01-30T00:55:10.650Z,0.62
2023-01-30T00:57:38.816Z,0.58
2023-01-30T01:00:09.277Z,0.68
2023-01-30T01:02:37.735Z,0.72
2023-01-30T01:05:08.163Z,0.71
2023-01-30T01:07:36.545Z,0.67
2023-01-30T01:10:05.128Z,0.65
2023-01-30T01:12:33.261Z,0.72
2023-01-30T01:15:01.527Z,0.72
2023-01-30T01:17:29.772Z,0.61
2023-01-30T01:19:57.927Z,0.58
2023-01-30T01:22:29.057Z,0.64
2023-01-30T01:24:57.223Z,0.62
2023-01-30T01:27:25.381Z,0.62
2023-01-30T01:29:53.518Z,0.70
2023-01-30T01:32:22.095Z,0.69
2023-01-30T01:34:50.398Z,0.64
2023-01-30T01:37:18.552Z,0.70
2023-01-30T01:40:10.888Z,0.70
2023-01-30T01:42:40.338Z,0.76
2023-01-30T01:45:18.929Z,0.71
2023-01-30T01:47:58.628Z,0.71
2023-01-30T01:50:31.558Z,0.62
2023-01-30T01:53:03.090Z,0.59
2023-01-30T01:55:32.826Z,0.69
2023-01-30T01:58:05.608Z,0.73
2023-01-30T02:00:34.094Z,0.71
2023-01-30T02:03:06.662Z,0.74
2023-01-30T02:05:37.773Z,0.72
2023-01-30T02:08:10.240Z,0.76
2023-01-30T02:10:47.935Z,0.73
2023-01-30T02:13:16.927Z,0.66
2023-01-30T02:15:45.221Z,0.70
2023-01-30T02:18:14.445Z,0.71
2023-01-30T02:20:56.863Z,0.62
2023-01-30T02:24:00.244Z,0.61
2023-01-30T02:26:50.919Z,0.47
2023-01-30T02:29:52.715Z,0.48
2023-01-30T02:32:30.722Z,0.52
2023-01-30T02:35:06.390Z,0.45
2023-01-30T02:37:48.305Z,0.43
2023-01-30T02:40:29.191Z,0.47
2023-01-30T02:43:09.177Z,0.50
2023-01-30T02:45:43.511Z,0.49
2023-01-30T02:48:22.315Z,0.48
2023-01-30T02:50:57.026Z,0.45
2023-01-30T02:53:25.889Z,0.49
2023-01-30T02:55:54.086Z,0.49
2023-01-30T02:58:25.197Z,0.54
2023-01-30T03:01:07.559Z,0.52
2023-01-30T03:03:59.276Z,0.46
2023-01-30T03:06:48.059Z,0.60
2023-01-30T03:09:28.287Z,0.56
2023-01-30T03:12:04.900Z,0.52
2023-01-30T03:14:45.565Z,0.48
2023-01-30T03:17:16.082Z,0.39
2023-01-30T03:19:46.305Z,0.37
2023-01-30T03:22:14.494Z,0.32
2023-01-30T03:24:43.150Z,0.20
2023-01-30T03:27:13.427Z,0.24
2023-01-30T03:29:41.671Z,0.17
2023-01-30T03:32:10.148Z,0.16
2023-01-30T03:34:38.710Z,0.18
2023-01-30T03:37:08.259Z,0.09
2023-01-30T03:39:37.844Z,0.03
2023-01-30T03:42:07.878Z,0.16
2023-01-30T03:44:36.176Z,0.14
2023-01-30T03:47:04.331Z,0.18
2023-01-30T03:49:33.263Z,0.19
2023-01-30T03:52:01.472Z,0.12
2023-01-30T03:54:31.273Z,0.24
2023-01-30T03:57:00.371Z,0.19
2023-01-30T03:59:28.611Z,0.25
2023-01-30T04:02:05.141Z,0.33
2023-01-30T04:04:34.209Z,0.34
2023-01-30T04:07:04.394Z,0.33
2023-01-30T04:09:35.712Z,0.40
2023-01-30T04:12:04.069Z,0.44
2023-01-30T04:14:37.418Z,0.43
2023-01-30T04:17:16.126Z,0.41
2023-01-30T04:20:08.702Z,0.38
2023-01-30T04:22:38.617Z,0.40
2023-01-30T04:25:10.117Z,0.55
2023-01-30T04:27:38.432Z,0.50
2023-01-30T04:30:16.488Z,0.51
2023-01-30T04:32:45.237Z,0.56
2023-01-30T04:35:13.436Z,0.50
2023-01-30T04:37:42.519Z,0.51
2023-01-30T04:40:15.208Z,0.48
2023-01-30T04:42:43.387Z,0.40
2023-01-30T04:45:47.499Z,0.41
2023-01-30T04:48:16.775Z,0.47
2023-01-30T04:50:49.251Z,0.64
2023-01-30T04:53:18.523Z,0.57
2023-01-30T04:55:48.492Z,0.69
2023-01-30T04:58:16.737Z,0.64
2023-01-30T05:00:44.952Z,0.71
2023-01-30T05:03:13.461Z,0.72
2023-01-30T05:05:41.590Z,0.82
2023-01-30T05:08:10.357Z,0.77
2023-01-30T05:10:38.935Z,0.78
2023-01-30T05:13:08.546Z,0.73
2023-01-30T05:15:36.717Z,0.69
2023-01-30T05:18:05.091Z,0.67
2023-01-30T05:20:33.302Z,0.57
2023-01-30T05:23:01.467Z,0.60
2023-01-30T05:25:29.785Z,0.47
2023-01-30T05:27:58.097Z,0.41
2023-01-30T05:30:27.611Z,0.25
2023-01-30T05:32:55.809Z,0.23
2023-01-30T05:35:24.001Z,0.32
2023-01-30T05:37:52.522Z,0.25
2023-01-30T05:40:20.663Z,0.29
2023-01-30T05:42:48.845Z,0.28
2023-01-30T05:45:17.339Z,0.33
2023-01-30T05:47:51.841Z,0.37
2023-01-30T05:50:20.076Z,0.29
2023-01-30T05:52:48.458Z,0.32
2023-01-30T05:55:17.110Z,0.43
2023-01-30T05:57:45.344Z,0.34
2023-01-30T06:00:14.537Z,0.27
2023-01-30T06:02:42.749Z,0.40
2023-01-30T06:05:12.235Z,0.34
2023-01-30T06:07:40.412Z,0.46
2023-01-30T06:10:09.444Z,0.38
2023-01-30T06:12:37.793Z,0.37
2023-01-30T06:15:07.291Z,0.45
2023-01-30T06:17:35.468Z,0.40
2023-01-30T06:20:04.228Z,0.38
2023-01-30T06:22:33.789Z,0.46
2023-01-30T06:25:01.945Z,0.51
2023-01-30T06:27:30.101Z,0.44
2023-01-30T06:29:58.266Z,0.44
2023-01-30T06:32:26.410Z,0.48
2023-01-30T06:34:54.541Z,0.51
2023-01-30T06:37:22.693Z,0.49
2023-01-30T06:39:52.169Z,0.60
2023-01-30T06:42:20.326Z,0.52
2023-01-30T06:44:48.451Z,0.65
2023-01-30T06:47:16.638Z,0.59
2023-01-30T06:49:44.805Z,0.67
2023-01-30T06:52:12.945Z,0.64
2023-01-30T06:54:41.120Z,0.67
2023-01-30T06:57:10.685Z,0.71
2023-01-30T06:59:39.074Z,0.69
2023-01-30T07:02:07.696Z,0.77
2023-01-30T07:04:36.027Z,0.91
2023-01-30T07:07:05.283Z,0.90
2023-01-30T07:09:34.997Z,0.85
2023-01-30T07:12:03.545Z,0.85
2023-01-30T07:14:33.411Z,0.93
2023-01-30T07:17:01.590Z,0.89
2023-01-30T07:19:29.751Z,0.90
2023-01-30T07:21:57.863Z,0.98
2023-01-30T07:24:26.479Z,1.01
2023-01-30T07:26:54.619Z,1.04
2023-01-30T07:29:22.729Z,1.00
2023-01-30T07:31:52.608Z,1.12
2023-01-30T07:34:21.014Z,1.13
2023-01-30T07:36:49.131Z,1.09
2023-01-30T07:39:17.252Z,1.08
2023-01-30T07:41:45.405Z,1.18
2023-01-30T07:44:13.813Z,1.23
2023-01-30T07:46:41.992Z,1.39
2023-01-30T07:49:11.705Z,1.40
2023-01-30T07:51:39.836Z,1.49
2023-01-30T07:54:08.012Z,1.44
2023-01-30T07:56:36.213Z,1.41
2023-01-30T07:59:05.689Z,1.50
2023-01-30T08:01:33.896Z,1.54
2023-01-30T08:04:02.065Z,1.47
2023-01-30T08:06:31.746Z,1.44
2023-01-30T08:08:59.903Z,1.41
2023-01-30T08:11:28.174Z,1.51
2023-01-30T08:13:56.304Z,1.56
2023-01-30T08:16:24.565Z,1.58
2023-01-30T08:18:52.757Z,1.65
2023-01-30T08:21:20.884Z,1.61
2023-01-30T08:23:50.935Z,1.71
2023-01-30T08:26:19.401Z,1.82
2023-01-30T08:28:47.569Z,1.82
2023-01-30T08:31:17.570Z,1.92
2023-01-30T08:33:46.095Z,1.93
2023-01-30T08:36:14.597Z,1.99
2023-01-30T08:38:42.748Z,2.09
2023-01-30T08:41:12.214Z,2.25
2023-01-30T08:43:40.362Z,2.27
2023-01-30T08:46:08.700Z,2.23
2023-01-30T08:48:49.092Z,2.34
2023-01-30T08:51:18.872Z,2.34
2023-01-30T08:53:47.077Z,2.33
2023-01-30T08:56:16.605Z,2.31
2023-01-30T08:58:46.563Z,2.40
2023-01-30T09:01:14.797Z,2.31
2023-01-30T09:03:43.584Z,2.32
2023-01-30T09:06:12.055Z,2.40
2023-01-30T09:08:40.274Z,2.53
2023-01-30T09:11:08.594Z,2.49
2023-01-30T09:13:40.951Z,2.60
2023-01-30T09:16:09.135Z,2.66
2023-01-30T09:18:39.711Z,2.76
2023-01-30T09:21:08.517Z,2.80
2023-01-30T09:23:37.010Z,2.79
2023-01-30T09:26:06.699Z,2.70
2023-01-30T09:28:36.140Z,2.71
2023-01-30T09:31:06.606Z,2.68
2023-01-30T09:33:34.878Z,2.79
2023-01-30T09:36:03.035Z,2.86
2023-01-30T09:38:31.211Z,2.94
2023-01-30T09:41:19.380Z,2.84
2023-01-30T09:44:05.911Z,2.85
2023-01-30T09:46:47.460Z,2.91
2023-01-30T09:49:27.024Z,3.02
2023-01-30T09:52:04.534Z,3.12
2023-01-30T09:54:37.612Z,3.20
2023-01-30T09:57:21.281Z,3.31
2023-01-30T09:59:57.985Z,3.42
2023-01-30T10:02:36.674Z,3.43
2023-01-30T10:05:06.539Z,3.22
2023-01-30T10:07:58.643Z,3.31
2023-01-30T10:10:38.409Z,3.46
2023-01-30T10:13:14.770Z,3.51
2023-01-30T10:15:53.191Z,3.43
2023-01-30T10:18:44.962Z,3.37
2023-01-30T10:21:24.704Z,3.28
2023-01-30T10:24:12.140Z,3.28
2023-01-30T10:26:42.710Z,3.44
2023-01-30T10:29:15.710Z,3.46
2023-01-30T10:31:47.582Z,3.47
2023-01-30T10:34:21.961Z,3.65
2023-01-30T10:36:57.168Z,3.52
2023-01-30T10:39:32.510Z,3.64
2023-01-30T10:42:10.928Z,3.81
2023-01-30T10:44:41.603Z,3.95
2023-01-30T10:47:38.054Z,4.15
2023-01-30T10:50:18.566Z,4.35
2023-01-30T10:52:56.720Z,4.36
2023-01-30T10:55:37.799Z,4.44
2023-01-30T10:58:17.383Z,4.56
2023-01-30T11:00:51.940Z,4.43
2023-01-30T11:03:29.327Z,4.54
2023-01-30T11:06:02.263Z,4.58
2023-01-30T11:08:33.136Z,4.53
2023-01-30T11:11:01.582Z,4.67
2023-01-30T11:13:31.926Z,4.65
2023-01-30T11:16:05.163Z,4.74
2023-01-30T11:19:18.152Z,4.88
2023-01-30T11:21:42.075Z,4.82
2023-01-30T11:24:17.951Z,4.85
2023-01-30T11:26:48.301Z,4.90
2023-01-30T11:29:28.784Z,5.01
2023-01-30T11:31:57.353Z,5.13
2023-01-30T11:34:25.747Z,5.15
2023-01-30T11:37:12.680Z,5.19
2023-01-30T11:39:49.752Z,5.25
2023-01-30T11:42:21.209Z,5.33
2023-01-30T11:45:10.890Z,5.40
2023-01-30T11:47:57.312Z,5.52
2023-01-30T11:50:37.075Z,5.61
2023-01-30T11:53:21.623Z,5.43
2023-01-30T11:56:03.007Z,5.20
2023-01-30T11:58:35.392Z,5.08
2023-01-30T12:01:05.304Z,5.03
2023-01-30T12:03:34.542Z,4.91
2023-01-30T12:06:03.712Z,4.90
2023-01-30T12:08:42.744Z,4.92
2023-01-30T12:11:32.753Z,5.04
2023-01-30T12:14:16.517Z,5.12
2023-01-30T12:16:55.480Z,5.33
2023-01-30T12:19:40.857Z,5.40
2023-01-30T12:22:22.156Z,5.39
2023-01-30T12:24:59.556Z,5.43
2023-01-30T12:27:44.700Z,5.46
2023-01-30T12:30:25.258Z,5.51
2023-01-30T12:32:56.796Z,5.46
2023-01-30T12:35:35.387Z,5.55
2023-01-30T12:38:14.888Z,5.55
2023-01-30T12:40:56.315Z,5.71
2023-01-30T12:43:35.616Z,5.62
2023-01-30T12:46:18.295Z,5.59
2023-01-30T12:49:08.140Z,5.62
2023-01-30T12:51:52.921Z,5.58
2023-01-30T12:54:37.337Z,5.79
2023-01-30T12:57:16.401Z,5.92
2023-01-30T12:59:51.598Z,6.01
2023-01-30T13:02:43.993Z,6.12
2023-01-30T13:05:22.609Z,6.08
2023-01-30T13:08:07.239Z,5.95
2023-01-30T13:10:45.786Z,5.91
2023-01-30T13:13:22.124Z,5.75
2023-01-30T13:15:59.492Z,5.75
2023-01-30T13:18:33.648Z,5.88
2023-01-30T13:21:09.092Z,5.81
2023-01-30T13:23:49.842Z,5.86
2023-01-30T13:26:22.055Z,5.87
2023-01-30T13:28:56.880Z,5.79
2023-01-30T13:31:29.052Z,5.73
2023-01-30T13:34:06.249Z,5.82
2023-01-30T13:36:42.448Z,5.73
2023-01-30T13:39:15.475Z,5.71
2023-01-30T13:41:49.015Z,5.72
2023-01-30T13:44:23.080Z,5.66
2023-01-30T13:46:53.859Z,5.62
2023-01-30T13:49:26.715Z,5.68
2023-01-30T13:52:03.393Z,5.67
2023-01-30T13:54:47.490Z,5.70
2023-01-30T13:57:26.768Z,5.70
2023-01-30T14:00:28.675Z,5.70
2023-01-30T14:03:24.437Z,5.71
2023-01-30T14:06:05.780Z,5.59
2023-01-30T14:08:39.475Z,5.59
2023-01-30T14:11:38.008Z,5.32
2023-01-30T14:14:23.880Z,5.00
2023-01-30T14:16:54.349Z,4.94
2023-01-30T14:19:33.337Z,4.94
2023-01-30T14:22:04.989Z,4.97
2023-01-30T14:24:33.507Z,4.93
2023-01-30T14:27:03.512Z,4.95
2023-01-30T14:29:54.632Z,4.95
2023-01-30T14:32:54.305Z,4.70
2023-01-30T14:35:28.606Z,4.76
2023-01-30T14:38:11.695Z,4.72
2023-01-30T14:41:10.146Z,4.85
2023-01-30T14:43:54.164Z,4.88
2023-01-30T14:46:54.406Z,4.88
2023-01-30T14:49:30.376Z,4.87
2023-01-30T14:52:00.546Z,4.84
2023-01-30T14:54:41.842Z,4.83
2023-01-30T14:57:27.630Z,4.80
2023-01-30T15:00:14.972Z,4.72
2023-01-30T15:02:48.941Z,4.67
2023-01-30T15:05:20.750Z,4.69
2023-01-30T15:07:54.793Z,4.62
2023-01-30T15:10:48.583Z,4.58
2023-01-30T15:13:34.019Z,4.58
2023-01-30T15:16:13.495Z,4.47
2023-01-30T15:19:03.693Z,4.55
2023-01-30T15:21:46.866Z,4.49
2023-01-30T15:24:33.792Z,4.50
2023-01-30T15:27:10.492Z,4.42
2023-01-30T15:29:59.460Z,4.42
2023-01-30T15:32:30.257Z,4.26
2023-01-30T15:35:00.884Z,4.10
2023-01-30T15:37:35.031Z,3.85
2023-01-30T15:40:21.704Z,3.69
2023-01-30T15:42:53.602Z,3.60
2023-01-30T15:45:33.148Z,3.61
2023-01-30T15:48:24.062Z,3.64
2023-01-30T15:50:54.665Z,3.72
2023-01-30T15:53:28.925Z,3.75
2023-01-30T15:56:01.357Z,3.87
2023-01-30T15:58:31.002Z,3.88
2023-01-30T16:01:01.967Z,3.82
2023-01-30T16:03:35.276Z,3.89
2023-01-30T16:06:04.287Z,3.92
2023-01-30T16:08:34.680Z,3.89
2023-01-30T16:11:04.644Z,3.93
2023-01-30T16:13:33.307Z,3.97
2023-01-30T16:16:04.927Z,4.05
2023-01-30T16:18:36.798Z,4.00
2023-01-30T16:21:08.291Z,4.07
2023-01-30T16:23:39.724Z,4.09
2023-01-30T16:26:14.488Z,4.04
2023-01-30T16:28:42.888Z,3.98
2023-01-30T16:31:12.112Z,4.04
2023-01-30T16:33:40.515Z,4.06
2023-01-30T16:36:32.879Z,3.97
2023-01-30T16:39:01.667Z,3.95
2023-01-30T16:41:34.249Z,4.02
2023-01-30T16:44:10.835Z,3.94
2023-01-30T16:46:48.533Z,3.93
2023-01-30T16:49:21.201Z,4.01
2023-01-30T16:51:51.597Z,4.02
2023-01-30T16:54:23.987Z,4.01
2023-01-30T16:56:56.571Z,4.05
2023-01-30T16:59:31.322Z,4.06
2023-01-30T17:02:00.982Z,4.09
2023-01-30T17:04:31.176Z,4.07
2023-01-30T17:07:04.205Z,4.05
2023-01-30T17:09:37.239Z,4.10
2023-01-30T17:12:38.894Z,4.15
2023-01-30T17:15:33.137Z,4.03
2023-01-30T17:18:01.636Z,4.05
2023-01-30T17:20:38.037Z,4.05
2023-01-30T17:23:10.202Z,3.94
2023-01-30T17:25:42.851Z,3.83
2023-01-30T17:28:19.088Z,3.81
2023-01-30T17:30:47.402Z,3.85
2023-01-30T17:33:15.572Z,3.81
2023-01-30T17:35:44.456Z,3.77
2023-01-30T17:38:12.677Z,3.84
2023-01-30T17:40:41.126Z,3.86
2023-01-30T17:43:11.433Z,3.99
2023-01-30T17:45:41.269Z,4.08
2023-01-30T17:48:11.428Z,4.02
2023-01-30T17:50:39.599Z,4.03
2023-01-30T17:53:07.786Z,3.98
2023-01-30T17:55:36.609Z,4.03
2023-01-30T17:58:04.933Z,4.01
2023-01-30T18:00:33.152Z,4.07
2023-01-30T18:03:02.871Z,4.07
2023-01-30T18:05:31.323Z,4.10
2023-01-30T18:07:59.606Z,4.15
2023-01-30T18:10:27.989Z,4.20
2023-01-30T18:12:56.139Z,4.19
2023-01-30T18:15:24.370Z,4.25
2023-01-30T18:17:54.993Z,4.30
2023-01-30T18:20:24.506Z,4.31
2023-01-30T18:22:52.771Z,4.31
2023-01-30T18:25:21.411Z,4.38
2023-01-30T18:27:50.000Z,4.33
2023-01-30T18:30:19.749Z,4.49
2023-01-30T18:32:53.824Z,4.51
2023-01-30T18:35:24.096Z,4.52
2023-01-30T18:37:52.618Z,4.51
2023-01-30T18:40:21.758Z,4.47
2023-01-30T18:42:50.295Z,4.48
2023-01-30T18:45:18.799Z,4.45
2023-01-30T18:47:46.960Z,4.46
2023-01-30T18:50:15.133Z,4.48
2023-01-30T18:52:44.572Z,4.52
2023-01-30T18:55:12.737Z,4.57
2023-01-30T18:57:40.913Z,4.59
2023-01-30T19:00:10.337Z,4.65
2023-01-30T19:02:38.588Z,4.60
2023-01-30T19:05:07.674Z,4.66
2023-01-30T19:07:36.515Z,4.72
2023-01-30T19:10:06.583Z,4.78
2023-01-30T19:12:52.314Z,4.66
2023-01-30T19:15:20.492Z,4.75
2023-01-30T19:17:48.612Z,4.74
2023-01-30T19:20:17.728Z,4.74
2023-01-30T19:22:46.164Z,4.78
2023-01-30T19:25:15.816Z,4.80
2023-01-30T19:27:44.141Z,4.79
2023-01-30T19:30:13.473Z,4.78
2023-01-30T19:32:41.865Z,4.88
2023-01-30T19:35:10.927Z,4.89
2023-01-30T19:37:39.495Z,4.95
2023-01-30T19:40:10.990Z,4.94
2023-01-30T19:42:44.126Z,4.92
2023-01-30T19:45:13.533Z,4.96
2023-01-30T19:47:41.752Z,4.94
2023-01-30T19:50:11.300Z,4.93
2023-01-30T19:52:40.795Z,4.91
2023-01-30T19:55:09.898Z,5.01
2023-01-30T19:57:39.018Z,4.95
2023-01-30T20:00:11.044Z,4.88
2023-01-30T20:02:39.331Z,4.92
2023-01-30T20:05:09.022Z,4.94
2023-01-30T20:07:38.494Z,4.89
2023-01-30T20:10:07.260Z,4.96
2023-01-30T20:12:35.978Z,4.92
2023-01-30T20:15:05.541Z,4.92
2023-01-30T20:17:35.252Z,4.99
2023-01-30T20:20:04.838Z,4.96
2023-01-30T20:22:32.984Z,4.94
2023-01-30T20:25:01.102Z,4.88
2023-01-30T20:27:29.754Z,4.90
2023-01-30T20:29:57.910Z,4.83
2023-01-30T20:32:26.108Z,4.84
2023-01-30T20:34:55.793Z,4.80
2023-01-30T20:37:25.785Z,4.75
2023-01-30T20:39:55.323Z,4.86
2023-01-30T20:42:24.567Z,4.90
2023-01-30T20:44:52.763Z,4.87
2023-01-30T20:47:21.945Z,4.83
2023-01-30T20:49:50.148Z,4.81
2023-01-30T20:52:20.011Z,4.81
2023-01-30T20:54:48.288Z,4.78
2023-01-30T20:57:16.618Z,4.73
2023-01-30T20:59:45.201Z,4.80
2023-01-30T21:02:13.838Z,4.79
2023-01-30T21:04:42.381Z,4.68
2023-01-30T21:07:10.579Z,4.57
2023-01-30T21:09:40.126Z,4.50
2023-01-30T21:12:08.450Z,4.49
2023-01-30T21:14:36.971Z,4.32
2023-01-30T21:17:05.142Z,4.37
2023-01-30T21:19:33.554Z,4.28
2023-01-30T21:22:07.422Z,4.18
2023-01-30T21:24:35.861Z,4.28
2023-01-30T21:27:05.382Z,4.30
2023-01-30T21:29:33.597Z,4.26
2023-01-30T21:32:01.978Z,4.18
2023-01-30T21:34:30.159Z,4.12
2023-01-30T21:37:16.012Z,4.08
2023-01-30T21:40:02.096Z,4.10
2023-01-30T21:42:49.246Z,3.92
2023-01-30T21:45:20.720Z,3.99
2023-01-30T21:47:51.533Z,3.97
2023-01-30T21:50:19.886Z,3.91
2023-01-30T21:52:48.122Z,4.03
2023-01-30T21:55:16.458Z,4.10
2023-01-30T21:57:45.971Z,4.18
2023-01-30T22:00:15.313Z,4.22
2023-01-30T22:02:43.526Z,4.15
2023-01-30T22:05:11.893Z,4.21
2023-01-30T22:07:40.215Z,4.20
2023-01-30T22:10:09.357Z,4.14
2023-01-30T22:12:40.032Z,4.13
2023-01-30T22:15:10.858Z,4.09
2023-01-30T22:17:39.071Z,4.03
2023-01-30T22:20:09.993Z,3.98
2023-01-30T22:22:38.628Z,4.17
2023-01-30T22:25:07.811Z,4.22
2023-01-30T22:27:36.194Z,4.16
2023-01-30T22:30:04.673Z,4.15
2023-01-30T22:32:34.490Z,4.22
2023-01-30T22:35:02.651Z,4.21
2023-01-30T22:37:30.991Z,4.25
2023-01-30T22:39:59.486Z,4.22
2023-01-30T22:42:27.612Z,4.25
2023-01-30T22:44:55.769Z,4.26
2023-01-30T22:47:23.982Z,4.25
2023-01-30T22:49:53.435Z,4.23
2023-01-30T22:52:21.773Z,4.19
2023-01-30T22:54:50.010Z,4.26
2023-01-30T22:57:18.130Z,4.18
2023-01-30T22:59:46.260Z,4.21
2023-01-30T23:02:14.455Z,4.20
2023-01-30T23:04:42.809Z,4.19
2023-01-30T23:07:14.247Z,4.08
2023-01-30T23:09:42.480Z,4.14
2023-01-30T23:12:28.268Z,4.14
2023-01-30T23:14:56.436Z,4.14
2023-01-30T23:17:42.184Z,4.12
2023-01-30T23:20:11.718Z,4.05
2023-01-30T23:22:41.198Z,4.09
2023-01-30T23:25:10.739Z,4.05
2023-01-30T23:27:39.082Z,4.03
2023-01-30T23:30:08.294Z,3.92
2023-01-30T23:32:36.592Z,3.90
2023-01-30T23:35:05.193Z,4.04
2023-01-30T23:37:47.549Z,3.90
2023-01-30T23:40:17.505Z,3.97
2023-01-30T23:42:45.631Z,3.90
2023-01-30T23:45:13.794Z,3.91
2023-01-30T23:47:41.909Z,3.95
2023-01-30T23:50:11.583Z,3.91
2023-01-30T23:52:39.934Z,3.85
2023-01-30T23:55:08.697Z,3.84
2023-01-30T23:57:38.508Z,3.79
